createdAt,value
2022-10-28T00:00:08.334Z,101164.34
2022-10-28T00:02:12.914Z,101166.24
2022-10-28T00:04:17.390Z,101170.02
2022-10-28T00:06:21.946Z,101171.45
2022-10-28T00:08:26.280Z,101167.83
2022-10-28T00:10:30.646Z,101167.89
2022-10-28T00:12:34.999Z,101164.28
2022-10-28T00:14:39.355Z,101165.02
2022-10-28T00:16:43.719Z,101170.87
2022-10-28T00:18:48.065Z,101164.98
2022-10-28T00:20:52.383Z,101171.58
2022-10-28T00:22:56.830Z,101168.44
2022-10-28T00:25:01.182Z,101169.42
2022-10-28T00:27:05.519Z,101162.95
2022-10-28T00:29:09.851Z,101162.64
2022-10-28T00:31:14.194Z,101153.38
2022-10-28T00:33:18.498Z,101146.96
2022-10-28T00:35:22.912Z,101142.47
2022-10-28T00:37:27.252Z,101144.61
2022-10-28T00:39:31.610Z,101145.52
2022-10-28T00:41:35.969Z,101144.84
2022-10-28T00:43:40.298Z,101143.67
2022-10-28T00:45:44.662Z,101137.4
2022-10-28T00:47:48.996Z,101135.93
2022-10-28T00:49:53.747Z,101139.09
2022-10-28T00:51:58.073Z,101141.03
2022-10-28T00:54:02.445Z,101137.26
2022-10-28T00:56:06.808Z,101136.41
2022-10-28T00:58:11.149Z,101134.51
2022-10-28T01:00:15.509Z,101130.52
2022-10-28T01:02:20.263Z,101131.23
2022-10-28T01:04:24.906Z,101126
2022-10-28T01:06:29.230Z,101128.18
2022-10-28T01:08:33.563Z,101124.13
2022-10-28T01:10:37.937Z,101122.15
2022-10-28T01:12:42.267Z,101124.91
2022-10-28T01:14:46.627Z,101123.24
2022-10-28T01:16:50.977Z,101119.02
2022-10-28T01:18:55.305Z,101114.83
2022-10-28T01:20:59.648Z,101114.22
2022-10-28T01:23:04.012Z,101113.09
2022-10-28T01:25:08.390Z,101110.7
2022-10-28T01:27:12.747Z,101107.88
2022-10-28T01:29:17.087Z,101111.21
2022-10-28T01:31:21.413Z,101109.27
2022-10-28T01:33:25.803Z,101102.9
2022-10-28T01:35:33.181Z,101107.86
2022-10-28T01:37:37.516Z,101105.17
2022-10-28T01:39:41.873Z,101101.59
2022-10-28T01:41:46.264Z,101099.52
2022-10-28T01:43:50.623Z,101098.38
2022-10-28T01:45:54.967Z,101095.7
2022-10-28T01:47:59.317Z,101092.77
2022-10-28T01:50:03.647Z,101085.09
2022-10-28T01:52:08.042Z,101083.97
2022-10-28T01:54:12.403Z,101080.72
2022-10-28T01:56:16.707Z,101075.78
2022-10-28T01:58:21.035Z,101081.19
2022-10-28T02:00:25.512Z,101079.17
2022-10-28T02:02:29.944Z,101079.92
2022-10-28T02:04:34.324Z,101075.32
2022-10-28T02:06:38.647Z,101074.3
2022-10-28T02:08:42.952Z,101077.72
2022-10-28T02:10:47.301Z,101078.23
2022-10-28T02:12:52.468Z,101073.38
2022-10-28T02:14:57.632Z,101073.79
2022-10-28T02:17:02.047Z,101076.58
2022-10-28T02:19:06.462Z,101072.46
2022-10-28T02:21:10.814Z,101068.64
2022-10-28T02:23:15.153Z,101067.31
2022-10-28T02:25:19.525Z,101067.92
2022-10-28T02:27:23.865Z,101070.95
2022-10-28T02:29:28.272Z,101071.88
2022-10-28T02:31:32.625Z,101075.31
2022-10-28T02:33:36.936Z,101072.07
2022-10-28T02:35:41.325Z,101069.64
2022-10-28T02:37:45.670Z,101069.09
2022-10-28T02:39:50.000Z,101067.93
2022-10-28T02:41:54.369Z,101063.5
2022-10-28T02:43:58.709Z,101064.63
2022-10-28T02:46:03.059Z,101063.13
2022-10-28T02:48:07.496Z,101061.72
2022-10-28T02:50:11.833Z,101061.09
2022-10-28T02:52:16.177Z,101062.13
2022-10-28T02:54:20.542Z,101061.84
2022-10-28T02:56:24.862Z,101061.06
2022-10-28T02:58:29.199Z,101063.58
2022-10-28T03:00:33.560Z,101066.57
2022-10-28T03:02:38.022Z,101064.36
2022-10-28T03:04:42.356Z,101070.73
2022-10-28T03:06:46.707Z,101069.3
2022-10-28T03:08:51.031Z,101067.86
2022-10-28T03:10:55.355Z,101065.7
2022-10-28T03:12:59.727Z,101057.78
2022-10-28T03:15:04.064Z,101056.89
2022-10-28T03:17:08.381Z,101054.23
2022-10-28T03:19:12.752Z,101052.39
2022-10-28T03:21:17.127Z,101053.75
2022-10-28T03:23:21.498Z,101056.41
2022-10-28T03:25:25.777Z,101051.1
2022-10-28T03:27:30.127Z,101051.69
2022-10-28T03:29:34.460Z,101048.11
2022-10-28T03:31:38.778Z,101046.56
2022-10-28T03:33:43.143Z,101051.47
2022-10-28T03:35:47.511Z,101049.77
2022-10-28T03:37:51.878Z,101048.61
2022-10-28T03:39:56.219Z,101046.45
2022-10-28T03:42:00.544Z,101045.22
2022-10-28T03:44:04.903Z,101041.48
2022-10-28T03:46:09.203Z,101040.5
2022-10-28T03:48:13.576Z,101040.28
2022-10-28T03:50:17.936Z,101040.8
2022-10-28T03:52:22.255Z,101041.58
2022-10-28T03:54:26.638Z,101046.47
2022-10-28T03:56:30.945Z,101047.79
2022-10-28T03:58:41.167Z,101047.79
2022-10-28T04:00:45.904Z,101043.02
2022-10-28T04:02:50.399Z,101042.19
2022-10-28T04:04:55.324Z,101040.05
2022-10-28T04:06:59.684Z,101041.72
2022-10-28T04:09:04.063Z,101041.7
2022-10-28T04:11:08.402Z,101041.42
2022-10-28T04:13:12.776Z,101044.3
2022-10-28T04:15:17.128Z,101047.25
2022-10-28T04:17:21.450Z,101043.7
2022-10-28T04:19:25.804Z,101041.48
2022-10-28T04:21:30.118Z,101039.67
2022-10-28T04:23:34.517Z,101038.41
2022-10-28T04:25:38.849Z,101037.05
2022-10-28T04:27:43.187Z,101027.23
2022-10-28T04:29:47.558Z,101028.39
2022-10-28T04:31:53.423Z,101024.48
2022-10-28T04:33:57.775Z,101024.58
2022-10-28T04:36:02.119Z,101018.34
2022-10-28T04:38:06.432Z,101014.61
2022-10-28T04:40:10.811Z,101015.72
2022-10-28T04:42:15.159Z,101015.3
2022-10-28T04:44:19.516Z,101014.5
2022-10-28T04:46:23.891Z,101012.27
2022-10-28T04:48:28.271Z,101011.86
2022-10-28T04:50:32.632Z,101010.91
2022-10-28T04:52:36.970Z,101011.07
2022-10-28T04:54:41.324Z,101014.09
2022-10-28T04:56:45.698Z,101012.08
2022-10-28T04:58:50.043Z,101013.94
2022-10-28T05:00:54.358Z,101021.02
2022-10-28T05:02:59.352Z,101020.5
2022-10-28T05:05:03.837Z,101015.7
2022-10-28T05:07:08.398Z,101015.97
2022-10-28T05:09:12.800Z,101017.35
2022-10-28T05:11:17.135Z,101010.56
2022-10-28T05:13:21.492Z,101003.9
2022-10-28T05:15:25.863Z,101003.89
2022-10-28T05:17:30.198Z,101001.92
2022-10-28T05:19:34.559Z,101002.2
2022-10-28T05:21:38.875Z,101000.02
2022-10-28T05:23:43.214Z,101002.97
2022-10-28T05:25:47.576Z,101000.55
2022-10-28T05:27:51.886Z,101002.36
2022-10-28T05:29:56.231Z,101003.55
2022-10-28T05:32:00.750Z,101004.45
2022-10-28T05:34:05.400Z,101001.95
2022-10-28T05:36:09.762Z,101005.91
2022-10-28T05:38:14.113Z,101004.37
2022-10-28T05:40:18.484Z,101005
2022-10-28T05:42:22.838Z,101010.1
2022-10-28T05:44:27.202Z,101004.59
2022-10-28T05:46:31.582Z,101000.25
2022-10-28T05:48:35.919Z,100994.66
2022-10-28T05:50:40.249Z,100990.2
2022-10-28T05:52:44.632Z,100990.37
2022-10-28T05:54:48.998Z,100993.86
2022-10-28T05:56:53.380Z,100993.63
2022-10-28T05:58:57.746Z,100989.31
2022-10-28T06:01:02.077Z,100988.88
2022-10-28T06:03:06.432Z,100988.39
2022-10-28T06:05:10.764Z,100989.84
2022-10-28T06:07:15.136Z,100992.68
2022-10-28T06:09:19.466Z,100986.93
2022-10-28T06:11:22.296Z,100986.02
2022-10-28T06:13:26.640Z,100986.97
2022-10-28T06:15:31.026Z,100988.63
2022-10-28T06:17:35.568Z,100986.72
2022-10-28T06:19:39.960Z,100988.53
2022-10-28T06:21:44.359Z,100989.15
2022-10-28T06:23:48.720Z,100996.08
2022-10-28T06:25:53.173Z,100999.66
2022-10-28T06:27:57.610Z,101002.56
2022-10-28T06:30:02.022Z,100996.05
2022-10-28T06:32:06.362Z,100996.42
2022-10-28T06:34:10.720Z,101001.71
2022-10-28T06:36:15.234Z,101004.95
2022-10-28T06:38:19.603Z,101009.05
2022-10-28T06:40:23.918Z,101006.37
2022-10-28T06:42:28.546Z,101008.76
2022-10-28T06:44:32.896Z,101012.03
2022-10-28T06:46:38.686Z,101014.02
2022-10-28T06:48:43.019Z,101017.44
2022-10-28T06:50:47.441Z,101016.72
2022-10-28T06:52:51.779Z,101019.33
2022-10-28T06:54:56.164Z,101016.77
2022-10-28T06:57:00.523Z,101017.55
2022-10-28T06:59:04.915Z,101017.05
2022-10-28T07:01:09.459Z,101014.21
2022-10-28T07:03:13.971Z,101013.8
2022-10-28T07:05:18.309Z,101011.96
2022-10-28T07:07:22.680Z,101013.66
2022-10-28T07:09:27.030Z,101014.48
2022-10-28T07:11:31.400Z,101013.8
2022-10-28T07:13:35.776Z,101016.16
2022-10-28T07:15:40.132Z,101015.1
2022-10-28T07:17:44.482Z,101008.48
2022-10-28T07:19:48.828Z,101013.59
2022-10-28T07:21:53.152Z,101014.86
2022-10-28T07:23:57.530Z,101011.48
2022-10-28T07:26:01.913Z,101007.63
2022-10-28T07:28:06.523Z,101014.11
2022-10-28T07:30:10.879Z,101016.91
2022-10-28T07:32:15.244Z,101016.74
2022-10-28T07:34:25.934Z,101019.41
2022-10-28T07:36:31.713Z,101018.42
2022-10-28T07:38:36.040Z,101025.03
2022-10-28T07:40:40.432Z,101033.16
2022-10-28T07:42:44.795Z,101030.36
2022-10-28T07:44:49.159Z,101034.84
2022-10-28T07:46:58.395Z,101033.81
2022-10-28T07:49:03.026Z,101034.37
2022-10-28T07:51:07.722Z,101040.2
2022-10-28T07:53:12.201Z,101034.74
2022-10-28T07:55:16.577Z,101032.5
2022-10-28T07:57:20.963Z,101031.81
2022-10-28T07:59:28.061Z,101027.96
2022-10-28T08:01:32.746Z,101028.47
2022-10-28T08:03:39.859Z,101028.06
2022-10-28T08:05:44.179Z,101025.11
2022-10-28T08:07:48.536Z,101021.73
2022-10-28T08:09:52.865Z,101019.48
2022-10-28T08:11:57.200Z,101013.11
2022-10-28T08:14:01.520Z,101010.8
2022-10-28T08:16:05.877Z,101004.69
2022-10-28T08:18:10.225Z,100998.77
2022-10-28T08:20:14.558Z,101000.47
2022-10-28T08:22:18.910Z,100998.19
2022-10-28T08:24:23.240Z,100997.61
2022-10-28T08:26:27.582Z,101002.09
2022-10-28T08:28:31.936Z,101002.36
2022-10-28T08:31:08.132Z,101004.24
2022-10-28T08:33:13.420Z,101005.55
2022-10-28T08:35:17.793Z,101003.98
2022-10-28T08:37:22.428Z,101002.72
2022-10-28T08:39:26.952Z,101005.75
2022-10-28T08:41:31.292Z,101007.91
2022-10-28T08:43:57.418Z,101009.04
2022-10-28T08:46:02.211Z,101011.42
2022-10-28T08:48:06.553Z,101025.19
2022-10-28T08:50:10.907Z,101022.69
2022-10-28T08:52:15.258Z,101018.22
2022-10-28T08:54:19.648Z,101019.27
2022-10-28T08:56:23.979Z,101022.23
2022-10-28T08:58:28.430Z,101018.34
2022-10-28T09:00:32.811Z,101019.98
2022-10-28T09:02:37.214Z,101017.7
2022-10-28T09:04:41.553Z,101017.23
2022-10-28T09:06:45.941Z,101013.55
2022-10-28T09:08:50.342Z,101013.17
2022-10-28T09:10:54.704Z,101011.13
2022-10-28T09:12:59.033Z,101011.67
2022-10-28T09:15:03.674Z,101009.66
2022-10-28T09:17:08.055Z,101009.52
2022-10-28T09:19:12.784Z,101012.66
2022-10-28T09:21:17.197Z,101007.72
2022-10-28T09:23:21.633Z,101011.19
2022-10-28T09:25:26.034Z,101010.46
2022-10-28T09:27:30.402Z,101007.39
2022-10-28T09:29:34.764Z,101004.19
2022-10-28T09:31:42.619Z,101004.59
2022-10-28T09:33:46.992Z,101008.22
2022-10-28T09:35:51.344Z,101008.7
2022-10-28T09:37:55.656Z,101008.98
2022-10-28T09:39:59.994Z,101007.83
2022-10-28T09:42:04.352Z,101008.38
2022-10-28T09:44:08.663Z,101009.84
2022-10-28T09:46:13.063Z,101012.85
2022-10-28T09:48:17.394Z,101010.3
2022-10-28T09:50:21.717Z,101015.96
2022-10-28T09:52:26.103Z,101011.63
2022-10-28T09:54:30.419Z,101010.27
2022-10-28T09:56:35.074Z,101010.17
2022-10-28T09:58:39.449Z,101005.64
2022-10-28T10:00:43.780Z,101003.56
2022-10-28T10:02:48.380Z,101000.7
2022-10-28T10:04:52.851Z,100997.91
2022-10-28T10:06:57.200Z,100999.47
2022-10-28T10:09:01.564Z,101001.28
2022-10-28T10:11:05.905Z,100998.69
2022-10-28T10:13:10.324Z,100996.3
2022-10-28T10:15:14.698Z,100994.27
2022-10-28T10:17:19.064Z,100992.89
2022-10-28T10:19:23.412Z,100994.05
2022-10-28T10:21:27.766Z,100995.66
2022-10-28T10:23:32.325Z,100991.09
2022-10-28T10:25:36.898Z,100989.97
2022-10-28T10:27:41.275Z,100990.61
2022-10-28T10:29:45.628Z,100989.12
2022-10-28T10:31:49.971Z,100991.64
2022-10-28T10:33:54.367Z,100992.19
2022-10-28T10:36:01.261Z,100995.36
2022-10-28T10:38:05.673Z,100988.95
2022-10-28T10:40:10.030Z,100982.84
2022-10-28T10:42:14.389Z,100978.64
2022-10-28T10:44:18.769Z,100976.28
2022-10-28T10:46:23.083Z,100976.11
2022-10-28T10:48:27.438Z,100974.75
2022-10-28T10:50:32.879Z,100977.82
2022-10-28T10:52:37.242Z,100978.67
2022-10-28T10:54:41.642Z,100979.7
2022-10-28T10:56:46.043Z,100980.58
2022-10-28T10:58:50.525Z,100981.47
2022-10-28T11:00:54.886Z,100983.73
2022-10-28T11:02:59.389Z,100976.08
2022-10-28T11:05:03.930Z,100971.94
2022-10-28T11:07:08.371Z,100970.2
2022-10-28T11:11:18.131Z,100964.02
2022-10-28T11:13:22.506Z,100956.98
2022-10-28T11:15:26.840Z,100950.48
2022-10-28T11:19:36.650Z,100951.13
2022-10-28T11:21:41.026Z,100950.65
2022-10-28T11:23:45.418Z,100947.09
2022-10-28T11:25:49.789Z,100939.74
2022-10-28T11:28:01.479Z,100936.67
2022-10-28T11:30:08.141Z,100934.51
2022-10-28T11:32:12.494Z,100934.16
2022-10-28T11:34:16.867Z,100932.01
2022-10-28T11:36:21.229Z,100934.88
2022-10-28T11:38:25.547Z,100934.02
2022-10-28T11:40:29.890Z,100933.73
2022-10-28T11:42:34.329Z,100929.84
2022-10-28T11:46:44.092Z,100932.8
2022-10-28T11:48:48.402Z,100929.1
2022-10-28T11:50:52.718Z,100927.94
2022-10-28T11:52:57.119Z,100927.45
2022-10-28T11:55:01.464Z,100923.08
2022-10-28T11:57:05.856Z,100918.36
2022-10-28T11:59:10.232Z,100914.35
2022-10-28T12:01:14.740Z,100911.89
2022-10-28T12:03:19.309Z,100909.52
2022-10-28T12:05:23.808Z,100909.66
2022-10-28T12:07:28.170Z,100911.36
2022-10-28T12:09:32.972Z,100915.55
2022-10-28T12:11:37.313Z,100910.9
2022-10-28T12:13:41.662Z,100910.52
2022-10-28T12:15:46.015Z,100906.68
2022-10-28T12:17:50.416Z,100905.45
2022-10-28T12:19:55.115Z,100903.53
2022-10-28T12:21:59.482Z,100901.84
2022-10-28T12:24:03.775Z,100903.51
2022-10-28T12:26:08.150Z,100901.36
2022-10-28T12:28:12.801Z,100899.36
2022-10-28T12:30:17.376Z,100892.19
2022-10-28T12:32:21.743Z,100885.97
2022-10-28T12:34:26.284Z,100889.5
2022-10-28T12:36:30.763Z,100888.45
2022-10-28T12:38:35.097Z,100887.56
2022-10-28T12:40:39.452Z,100888.73
2022-10-28T12:42:43.861Z,100883.76
2022-10-28T12:44:53.623Z,100885.3
2022-10-28T12:46:58.369Z,100879.34
2022-10-28T12:49:02.746Z,100876.58
2022-10-28T12:51:07.147Z,100874.64
2022-10-28T12:53:11.523Z,100871.3
2022-10-28T12:57:20.390Z,100869.98
2022-10-28T12:59:24.767Z,100873.3
2022-10-28T13:01:29.386Z,100869.86
2022-10-28T13:03:34.069Z,100867.78
2022-10-28T13:05:38.439Z,100866.42
2022-10-28T13:07:42.776Z,100868.99
2022-10-28T13:09:47.131Z,100870.09
2022-10-28T13:11:51.525Z,100870.23
2022-10-28T13:13:56.024Z,100863.3
2022-10-28T13:16:00.654Z,100862.01
2022-10-28T13:18:04.997Z,100860.95
2022-10-28T13:20:09.465Z,100859.05
2022-10-28T13:22:14.279Z,100856.41
2022-10-28T13:24:18.745Z,100853.92
2022-10-28T13:26:23.296Z,100850.81
2022-10-28T13:28:27.775Z,100847.84
2022-10-28T13:30:32.177Z,100839.38
2022-10-28T13:32:39.788Z,100841.53
2022-10-28T13:34:44.186Z,100835.59
2022-10-28T13:36:49.113Z,100835.73
2022-10-28T13:38:56.883Z,100839.21
2022-10-28T13:41:01.347Z,100834.8
2022-10-28T13:43:05.687Z,100842.02
2022-10-28T13:45:10.043Z,100844.58
2022-10-28T13:47:14.388Z,100842.36
2022-10-28T13:49:18.780Z,100843.8
2022-10-28T13:51:23.171Z,100843.02
2022-10-28T13:53:27.507Z,100841.15
2022-10-28T13:55:38.373Z,100841.42
2022-10-28T13:57:42.964Z,100841.22
2022-10-28T13:59:47.349Z,100840.16
2022-10-28T14:02:28.773Z,100841.16
2022-10-28T14:04:39.694Z,100844.64
2022-10-28T14:06:44.099Z,100837.3
2022-10-28T14:08:48.421Z,100840.2
2022-10-28T14:10:52.761Z,100841.5
2022-10-28T14:12:58.263Z,100837.46
2022-10-28T14:15:03.440Z,100836.61
2022-10-28T14:17:07.790Z,100839.38
2022-10-28T14:19:12.179Z,100836.2
2022-10-28T14:21:16.529Z,100835.86
2022-10-28T14:23:20.880Z,100838.8
2022-10-28T14:25:25.222Z,100837.88
2022-10-28T14:27:29.574Z,100837.47
2022-10-28T14:29:34.024Z,100836.45
2022-10-28T14:31:38.671Z,100840.17
2022-10-28T14:33:43.018Z,100840.92
2022-10-28T14:35:47.362Z,100840.76
2022-10-28T14:37:51.760Z,100836.73
2022-10-28T14:39:56.614Z,100834.95
2022-10-28T14:42:01.210Z,100831.64
2022-10-28T14:44:05.682Z,100827.75
2022-10-28T14:46:10.017Z,100828.95
2022-10-28T14:48:14.384Z,100831.64
2022-10-28T14:50:18.853Z,100826.05
2022-10-28T14:52:23.253Z,100822.73
2022-10-28T14:54:27.617Z,100822.02
2022-10-28T14:56:32.048Z,100822.67
2022-10-28T14:58:36.568Z,100823.97
2022-10-28T15:00:40.952Z,100818.27
2022-10-28T15:02:45.484Z,100819.09
2022-10-28T15:04:50.098Z,100815.33
2022-10-28T15:06:54.464Z,100817.76
2022-10-28T15:08:58.791Z,100818.55
2022-10-28T15:11:03.153Z,100813.36
2022-10-28T15:13:07.541Z,100814.69
2022-10-28T15:15:11.987Z,100814.66
2022-10-28T15:17:16.370Z,100811.31
2022-10-28T15:19:20.729Z,100814.8
2022-10-28T15:21:25.094Z,100814.29
2022-10-28T15:23:29.588Z,100815.48
2022-10-28T15:25:34.050Z,100819
2022-10-28T15:27:38.425Z,100815.31
2022-10-28T15:29:42.873Z,100817.54
2022-10-28T15:31:47.218Z,100816.65
2022-10-28T15:33:51.550Z,100810.13
2022-10-28T15:35:55.941Z,100813.78
2022-10-28T15:38:00.421Z,100815.97
2022-10-28T15:40:11.363Z,100815.31
2022-10-28T15:42:16.877Z,100815.94
2022-10-28T15:44:21.263Z,100814.56
2022-10-28T15:46:25.620Z,100818.84
2022-10-28T15:48:30.016Z,100814.8
2022-10-28T15:50:34.413Z,100813.48
2022-10-28T15:52:38.778Z,100812.73
2022-10-28T15:54:43.487Z,100809.58
2022-10-28T15:56:47.907Z,100816.65
2022-10-28T15:58:52.269Z,100812.91
2022-10-28T16:00:56.823Z,100815.59
2022-10-28T16:03:02.321Z,100811.67
2022-10-28T16:05:07.034Z,100808.77
2022-10-28T16:07:11.454Z,100809.45
2022-10-28T16:09:15.805Z,100808.09
2022-10-28T16:11:20.171Z,100814.1
2022-10-28T16:13:24.567Z,100812.02
2022-10-28T16:15:28.934Z,100819.91
2022-10-28T16:17:33.426Z,100815.06
2022-10-28T16:19:37.775Z,100815.75
2022-10-28T16:21:42.120Z,100813.7
2022-10-28T16:23:46.539Z,100816.4
2022-10-28T16:25:50.922Z,100812.81
2022-10-28T16:27:56.019Z,100812.16
2022-10-28T16:30:01.358Z,100812.95
2022-10-28T16:32:05.716Z,100819.44
2022-10-28T16:34:10.102Z,100821.82
2022-10-28T16:36:14.430Z,100825.09
2022-10-28T16:38:18.805Z,100821.41
2022-10-28T16:40:52.296Z,100827.14
2022-10-28T16:42:57.859Z,100827.85
2022-10-28T16:45:02.353Z,100829.94
2022-10-28T16:47:06.796Z,100834.74
2022-10-28T16:49:11.155Z,100831.8
2022-10-28T16:51:15.510Z,100831.8
2022-10-28T16:53:19.969Z,100822.45
2022-10-28T16:55:24.334Z,100824.86
2022-10-28T16:57:28.666Z,100823.19
2022-10-28T16:59:33.024Z,100822.5
2022-10-28T17:01:37.810Z,100820
2022-10-28T17:03:42.542Z,100814.61
2022-10-28T17:05:46.907Z,100807.41
2022-10-28T17:07:51.364Z,100810.55
2022-10-28T17:09:56.237Z,100818.59
2022-10-28T17:12:00.648Z,100819.48
2022-10-28T17:14:05.138Z,100826.74
2022-10-28T17:16:09.492Z,100827.28
2022-10-28T17:18:13.852Z,100828.47
2022-10-28T17:20:18.213Z,100827.65
2022-10-28T17:22:22.588Z,100833.14
2022-10-28T17:24:26.974Z,100827.03
2022-10-28T17:26:31.331Z,100828.25
2022-10-28T17:28:35.702Z,100825.48
2022-10-28T17:30:40.243Z,100831.49
2022-10-28T17:32:44.769Z,100831.97
2022-10-28T17:34:49.172Z,100825.89
2022-10-28T17:36:53.528Z,100822.61
2022-10-28T17:38:57.855Z,100823.49
2022-10-28T17:41:02.216Z,100820.8
2022-10-28T17:43:06.609Z,100818.31
2022-10-28T17:45:10.991Z,100817.02
2022-10-28T17:47:15.350Z,100820.28
2022-10-28T17:49:19.721Z,100818.95
2022-10-28T17:51:24.094Z,100819.78
2022-10-28T17:53:28.441Z,100818.53
2022-10-28T17:55:32.924Z,100823.95
2022-10-28T17:57:37.384Z,100818.53
2022-10-28T17:59:41.775Z,100816.8
2022-10-28T18:01:46.399Z,100818.13
2022-10-28T18:03:50.919Z,100820.59
2022-10-28T18:05:55.240Z,100818.63
2022-10-28T18:07:59.602Z,100814.05
2022-10-28T18:10:04.057Z,100808.58
2022-10-28T18:12:08.642Z,100807.34
2022-10-28T18:14:13.036Z,100814.7
2022-10-28T18:16:17.416Z,100807.07
2022-10-28T18:18:21.880Z,100809.11
2022-10-28T18:20:26.325Z,100811.67
2022-10-28T18:22:30.660Z,100808.75
2022-10-28T18:24:35.021Z,100801.04
2022-10-28T18:26:39.357Z,100805.27
2022-10-28T18:28:43.737Z,100806.28
2022-10-28T18:30:48.122Z,100800.89
2022-10-28T18:32:53.295Z,100801.61
2022-10-28T18:34:58.437Z,100800.58
2022-10-28T18:37:03.013Z,100799.59
2022-10-28T18:39:07.476Z,100799.01
2022-10-28T18:41:11.866Z,100797.11
2022-10-28T18:43:16.212Z,100791.44
2022-10-28T18:45:20.897Z,100794.59
2022-10-28T18:47:25.258Z,100794.11
2022-10-28T18:49:29.597Z,100795.03
2022-10-28T18:51:34.054Z,100798.61
2022-10-28T18:53:38.548Z,100795.64
2022-10-28T18:55:42.946Z,100789.11
2022-10-28T18:57:47.359Z,100795.14
2022-10-28T19:00:18.977Z,100797.18
2022-10-28T19:02:24.504Z,100796.92
2022-10-28T19:04:29.552Z,100794.96
2022-10-28T19:06:34.180Z,100791.13
2022-10-28T19:08:38.538Z,100788.89
2022-10-28T19:10:42.911Z,100791.1
2022-10-28T19:12:53.385Z,100791.88
2022-10-28T19:14:57.783Z,100792.13
2022-10-28T19:17:02.138Z,100795.72
2022-10-28T19:19:06.663Z,100794.09
2022-10-28T19:21:11.040Z,100795.17
2022-10-28T19:23:15.531Z,100792.16
2022-10-28T19:25:19.890Z,100786.7
2022-10-28T19:27:24.294Z,100780.38
2022-10-28T19:29:28.799Z,100781.35
2022-10-28T19:31:33.308Z,100780.14
2022-10-28T19:33:37.716Z,100782.22
2022-10-28T19:35:42.044Z,100780.72
2022-10-28T19:37:46.408Z,100783.3
2022-10-28T19:39:57.294Z,100783
2022-10-28T19:42:01.684Z,100777.34
2022-10-28T19:44:06.095Z,100784.02
2022-10-28T19:46:10.453Z,100779.34
2022-10-28T19:48:14.816Z,100779.31
2022-10-28T19:50:19.194Z,100781.38
2022-10-28T19:52:23.566Z,100781.45
2022-10-28T19:54:27.901Z,100779.7
2022-10-28T19:56:32.274Z,100780.34
2022-10-28T19:58:36.656Z,100787.56
2022-10-28T20:00:41.021Z,100779.14
2022-10-28T20:02:45.553Z,100781.11
2022-10-28T20:04:50.111Z,100778.2
2022-10-28T20:06:54.449Z,100776.38
2022-10-28T20:08:59.028Z,100774.84
2022-10-28T20:11:03.391Z,100775.75
2022-10-28T20:13:07.774Z,100776.93
2022-10-28T20:15:12.118Z,100774.06
2022-10-28T20:17:16.506Z,100775.55
2022-10-28T20:19:20.869Z,100775.58
2022-10-28T20:21:25.229Z,100775.44
2022-10-28T20:23:29.604Z,100775.5
2022-10-28T20:25:33.965Z,100768.69
2022-10-28T20:27:38.343Z,100770.89
2022-10-28T20:29:42.719Z,100769.77
2022-10-28T20:31:47.066Z,100769.64
2022-10-28T20:33:51.442Z,100765.5
2022-10-28T20:35:55.847Z,100762
2022-10-28T20:38:00.699Z,100763.06
2022-10-28T20:40:08.676Z,100767.64
2022-10-28T20:42:13.049Z,100768.33
2022-10-28T20:44:17.467Z,100772.28
2022-10-28T20:46:21.836Z,100773.55
2022-10-28T20:48:26.213Z,100773.54
2022-10-28T20:50:30.582Z,100771.8
2022-10-28T20:52:34.959Z,100772.7
2022-10-28T20:54:39.374Z,100770.1
2022-10-28T20:56:43.806Z,100771.45
2022-10-28T20:58:48.241Z,100769.95
2022-10-28T21:00:52.623Z,100771.73
2022-10-28T21:02:58.254Z,100767.72
2022-10-28T21:05:03.872Z,100769.27
2022-10-28T21:07:08.301Z,100766.06
2022-10-28T21:09:12.783Z,100764.94
2022-10-28T21:11:17.217Z,100764.31
2022-10-28T21:13:21.627Z,100767.75
2022-10-28T21:15:25.995Z,100766.81
2022-10-28T21:17:30.357Z,100765.92
2022-10-28T21:19:34.759Z,100765.77
2022-10-28T21:21:39.120Z,100764.06
2022-10-28T21:23:43.497Z,100761.25
2022-10-28T21:25:47.913Z,100753.41
2022-10-28T21:27:52.298Z,100751.8
2022-10-28T21:29:56.843Z,100752.44
2022-10-28T21:32:01.280Z,100751.75
2022-10-28T21:34:09.485Z,100743.17
2022-10-28T21:36:13.909Z,100753.42
2022-10-28T21:38:18.272Z,100749.94
2022-10-28T21:40:22.652Z,100752.97
2022-10-28T21:42:27.000Z,100754.16
2022-10-28T21:44:31.374Z,100752.17
2022-10-28T21:46:35.753Z,100752.09
2022-10-28T21:48:40.105Z,100748.7
2022-10-28T21:50:44.496Z,100753.65
2022-10-28T21:52:48.988Z,100753.69
2022-10-28T21:54:53.447Z,100753.19
2022-10-28T21:56:57.915Z,100751.45
2022-10-28T21:59:02.294Z,100750
2022-10-28T22:01:06.660Z,100751.94
2022-10-28T22:03:11.016Z,100748.3
2022-10-28T22:05:15.428Z,100745.98
2022-10-28T22:07:19.767Z,100742.62
2022-10-28T22:09:24.135Z,100737.07
2022-10-28T22:11:28.499Z,100733.91
2022-10-28T22:13:32.806Z,100732.54
2022-10-28T22:15:37.181Z,100729.64
2022-10-28T22:17:41.533Z,100729.03
2022-10-28T22:19:45.874Z,100732.2
2022-10-28T22:21:50.236Z,100735.64
2022-10-28T22:23:54.606Z,100734.69
2022-10-28T22:25:58.951Z,100735.61
2022-10-28T22:28:03.321Z,100738.3
2022-10-28T22:30:07.684Z,100733.94
2022-10-28T22:32:12.060Z,100735.85
2022-10-28T22:34:16.428Z,100731.45
2022-10-28T22:36:20.840Z,100730.61
2022-10-28T22:38:25.213Z,100731.22
2022-10-28T22:40:29.605Z,100733.56
2022-10-28T22:42:33.987Z,100737.48
2022-10-28T22:44:38.475Z,100731.02
2022-10-28T22:46:42.832Z,100734.83
2022-10-28T22:48:47.202Z,100740.25
2022-10-28T22:50:51.566Z,100741.95
2022-10-28T22:52:55.859Z,100738.69
2022-10-28T22:55:00.243Z,100742.5
2022-10-28T22:57:04.616Z,100740.32
2022-10-28T22:59:08.992Z,100736.2
2022-10-28T23:01:13.923Z,100734.94
2022-10-28T23:03:18.619Z,100735.08
2022-10-28T23:05:22.985Z,100725.39
2022-10-28T23:07:27.363Z,100730.51
2022-10-28T23:09:31.738Z,100729.52
2022-10-28T23:11:36.078Z,100731.45
2022-10-28T23:13:41.021Z,100733.02
2022-10-28T23:15:45.362Z,100739.88
2022-10-28T23:17:49.746Z,100735.58
2022-10-28T23:19:54.141Z,100736.95
2022-10-28T23:21:58.784Z,100735.34
2022-10-28T23:24:03.151Z,100734.28
2022-10-28T23:26:07.557Z,100740.11
2022-10-28T23:28:11.893Z,100737.19
2022-10-28T23:30:16.258Z,100733.44
2022-10-28T23:32:20.610Z,100732.11
2022-10-28T23:34:24.978Z,100725.42
2022-10-28T23:36:29.358Z,100724.13
2022-10-28T23:38:33.726Z,100728.16
2022-10-28T23:40:38.051Z,100728.66
2022-10-28T23:42:42.472Z,100731.45
2022-10-28T23:44:46.796Z,100731.19
2022-10-28T23:46:51.375Z,100732.38
2022-10-28T23:48:55.741Z,100728.42
2022-10-28T23:51:00.090Z,100731.42
2022-10-28T23:53:04.482Z,100728.49
2022-10-28T23:55:08.870Z,100731.73
2022-10-28T23:57:13.242Z,100722.84